createdAt,value
2023-02-06T00:01:19.256Z,-27.03
2023-02-06T00:03:45.753Z,-26.83
2023-02-06T00:06:12.704Z,-26.99
2023-02-06T00:08:39.201Z,-26.95
2023-02-06T00:11:07.470Z,-26.91
2023-02-06T00:13:35.027Z,-26.97
2023-02-06T00:16:01.661Z,-26.88
2023-02-06T00:18:28.440Z,-26.84
2023-02-06T00:20:54.984Z,-26.77
2023-02-06T00:23:21.468Z,-26.76
2023-02-06T00:25:48.021Z,-26.53
2023-02-06T00:28:14.581Z,-26.47
2023-02-06T00:30:41.090Z,-26.54
2023-02-06T00:33:07.549Z,-26.54
2023-02-06T00:35:34.321Z,-26.65
2023-02-06T00:38:02.449Z,-26.66
2023-02-06T00:40:29.428Z,-26.63
2023-02-06T00:42:55.942Z,-26.63
2023-02-06T00:45:22.717Z,-26.78
2023-02-06T00:47:49.170Z,-26.92
2023-02-06T00:50:16.086Z,-26.87
2023-02-06T00:52:42.634Z,-26.76
2023-02-06T00:55:09.118Z,-26.77
2023-02-06T00:57:35.586Z,-26.78
2023-02-06T01:00:03.211Z,-26.81
2023-02-06T01:02:29.708Z,-27.01
2023-02-06T01:04:56.215Z,-27.09
2023-02-06T01:07:22.752Z,-27.03
2023-02-06T01:09:49.202Z,-26.94
2023-02-06T01:12:15.849Z,-26.81
2023-02-06T01:14:42.425Z,-26.83
2023-02-06T01:17:10.217Z,-26.78
2023-02-06T01:19:38.138Z,-26.69
2023-02-06T01:22:05.247Z,-26.63
2023-02-06T01:24:31.811Z,-26.63
2023-02-06T01:26:58.493Z,-26.84
2023-02-06T01:29:24.948Z,-26.94
2023-02-06T01:31:51.381Z,-26.92
2023-02-06T01:34:17.907Z,-26.89
2023-02-06T01:36:44.401Z,-26.83
2023-02-06T01:39:10.866Z,-26.81
2023-02-06T01:41:37.582Z,-26.86
2023-02-06T01:44:17.729Z,-26.77
2023-02-06T01:46:46.726Z,-26.69
2023-02-06T01:49:21.033Z,-26.70
2023-02-06T01:51:49.278Z,-26.65
2023-02-06T01:54:15.992Z,-26.62
2023-02-06T01:56:48.360Z,-26.78
2023-02-06T01:59:14.922Z,-26.74
2023-02-06T02:01:41.953Z,-26.68
2023-02-06T02:04:13.096Z,-26.63
2023-02-06T02:06:40.089Z,-26.76
2023-02-06T02:09:07.136Z,-26.71
2023-02-06T02:11:36.290Z,-26.72
2023-02-06T02:14:04.861Z,-26.91
2023-02-06T02:16:48.683Z,-27.00
2023-02-06T02:19:49.236Z,-26.91
2023-02-06T02:22:39.774Z,-26.83
2023-02-06T02:25:06.337Z,-26.74
2023-02-06T02:27:41.737Z,-26.70
2023-02-06T02:30:32.790Z,-26.69
2023-02-06T02:33:34.939Z,-26.70
2023-02-06T02:36:13.368Z,-26.91
2023-02-06T02:38:57.140Z,-27.06
2023-02-06T02:41:37.759Z,-27.20
2023-02-06T02:44:08.332Z,-27.22
2023-02-06T02:46:40.870Z,-27.19
2023-02-06T02:49:17.310Z,-27.23
2023-02-06T02:51:44.265Z,-27.24
2023-02-06T02:54:10.859Z,-27.30
2023-02-06T02:56:38.526Z,-27.33
2023-02-06T02:59:16.042Z,-27.31
2023-02-06T03:02:03.282Z,-27.34
2023-02-06T03:05:04.281Z,-27.40
2023-02-06T03:07:38.868Z,-27.37
2023-02-06T03:10:15.525Z,-27.43
2023-02-06T03:13:03.301Z,-27.25
2023-02-06T03:15:45.914Z,-27.20
2023-02-06T03:18:18.052Z,-27.27
2023-02-06T03:20:45.995Z,-27.34
2023-02-06T03:23:17.229Z,-27.40
2023-02-06T03:25:45.583Z,-27.55
2023-02-06T03:28:16.897Z,-27.45
2023-02-06T03:30:46.253Z,-27.42
2023-02-06T03:33:15.535Z,-27.36
2023-02-06T03:35:42.271Z,-27.52
2023-02-06T03:38:09.142Z,-27.78
2023-02-06T03:40:36.317Z,-27.70
2023-02-06T03:43:03.983Z,-27.74
2023-02-06T03:45:39.271Z,-27.82
2023-02-06T03:48:10.341Z,-27.75
2023-02-06T03:50:39.569Z,-27.79
2023-02-06T03:53:06.411Z,-27.57
2023-02-06T03:55:32.877Z,-27.49
2023-02-06T03:58:03.768Z,-27.42
2023-02-06T04:00:31.043Z,-27.56
2023-02-06T04:02:58.529Z,-27.58
2023-02-06T04:05:34.806Z,-27.63
2023-02-06T04:08:05.724Z,-28.12
2023-02-06T04:10:32.394Z,-28.32
2023-02-06T04:12:58.867Z,-28.41
2023-02-06T04:15:25.511Z,-28.38
2023-02-06T04:18:00.105Z,-28.37
2023-02-06T04:20:28.279Z,-28.26
2023-02-06T04:22:54.828Z,-28.31
2023-02-06T04:25:21.485Z,-28.40
2023-02-06T04:27:47.998Z,-28.50
2023-02-06T04:30:15.661Z,-28.46
2023-02-06T04:32:42.286Z,-28.53
2023-02-06T04:35:08.983Z,-28.42
2023-02-06T04:37:35.686Z,-28.46
2023-02-06T04:40:02.241Z,-28.43
2023-02-06T04:42:28.729Z,-28.51
2023-02-06T04:44:55.199Z,-28.46
2023-02-06T04:47:21.769Z,-28.24
2023-02-06T04:49:48.277Z,-28.15
2023-02-06T04:52:14.775Z,-28.03
2023-02-06T04:54:41.197Z,-28.10
2023-02-06T04:57:07.697Z,-28.19
2023-02-06T04:59:34.173Z,-28.29
2023-02-06T05:02:01.581Z,-28.08
2023-02-06T05:04:28.125Z,-28.05
2023-02-06T05:06:54.599Z,-28.05
2023-02-06T05:09:21.078Z,-28.27
2023-02-06T05:11:47.552Z,-28.30
2023-02-06T05:14:14.129Z,-28.18
2023-02-06T05:16:40.596Z,-28.01
2023-02-06T05:19:07.117Z,-28.08
2023-02-06T05:21:33.601Z,-28.20
2023-02-06T05:24:00.047Z,-28.33
2023-02-06T05:26:26.488Z,-28.43
2023-02-06T05:28:53.141Z,-28.25
2023-02-06T05:31:20.264Z,-28.10
2023-02-06T05:33:51.112Z,-28.13
2023-02-06T05:36:18.901Z,-28.13
2023-02-06T05:38:45.598Z,-28.13
2023-02-06T05:41:12.715Z,-27.94
2023-02-06T05:43:39.209Z,-28.02
2023-02-06T05:46:05.912Z,-27.94
2023-02-06T05:48:34.428Z,-27.94
2023-02-06T05:51:01.402Z,-28.17
2023-02-06T05:53:27.947Z,-28.25
2023-02-06T05:55:54.594Z,-28.11
2023-02-06T05:58:21.254Z,-27.99
2023-02-06T06:00:47.763Z,-27.84
2023-02-06T06:03:14.340Z,-27.87
2023-02-06T06:05:40.808Z,-28.00
2023-02-06T06:08:07.283Z,-28.08
2023-02-06T06:10:33.806Z,-28.05
2023-02-06T06:13:00.361Z,-28.18
2023-02-06T06:15:26.855Z,-28.00
2023-02-06T06:17:53.370Z,-28.07
2023-02-06T06:20:19.956Z,-28.12
2023-02-06T06:22:46.458Z,-28.15
2023-02-06T06:25:13.169Z,-28.26
2023-02-06T06:27:39.749Z,-28.23
2023-02-06T06:30:06.718Z,-28.34
2023-02-06T06:32:33.240Z,-28.22
2023-02-06T06:34:59.841Z,-28.15
2023-02-06T06:37:26.398Z,-28.10
2023-02-06T06:39:52.916Z,-28.08
2023-02-06T06:42:19.526Z,-27.87
2023-02-06T06:44:46.326Z,-27.81
2023-02-06T06:47:13.315Z,-27.88
2023-02-06T06:49:39.886Z,-27.94
2023-02-06T06:52:13.406Z,-27.93
2023-02-06T06:54:46.329Z,-27.79
2023-02-06T06:57:13.350Z,-27.73
2023-02-06T06:59:40.216Z,-27.74
2023-02-06T07:02:07.334Z,-27.64
2023-02-06T07:04:33.895Z,-27.41
2023-02-06T07:07:00.431Z,-27.42
2023-02-06T07:09:27.130Z,-27.34
2023-02-06T07:11:53.661Z,-27.38
2023-02-06T07:14:20.264Z,-27.33
2023-02-06T07:16:47.140Z,-27.33
2023-02-06T07:19:13.688Z,-27.32
2023-02-06T07:21:40.453Z,-27.10
2023-02-06T07:24:07.209Z,-26.81
2023-02-06T07:26:33.798Z,-26.70
2023-02-06T07:29:00.319Z,-26.65
2023-02-06T07:31:26.947Z,-26.58
2023-02-06T07:33:53.437Z,-26.50
2023-02-06T07:36:20.131Z,-26.50
2023-02-06T07:38:46.782Z,-26.42
2023-02-06T07:41:13.294Z,-26.37
2023-02-06T07:43:39.886Z,-26.36
2023-02-06T07:46:06.548Z,-26.29
2023-02-06T07:48:33.024Z,-26.22
2023-02-06T07:51:05.240Z,-25.89
2023-02-06T07:53:31.742Z,-25.71
2023-02-06T07:55:58.266Z,-25.54
2023-02-06T07:58:25.679Z,-25.28
2023-02-06T08:00:52.299Z,-25.17
2023-02-06T08:03:19.062Z,-25.19
2023-02-06T08:05:45.535Z,-25.01
2023-02-06T08:08:12.577Z,-25.01
2023-02-06T08:10:39.824Z,-25.01
2023-02-06T08:13:06.318Z,-24.92
2023-02-06T08:15:33.319Z,-24.97
2023-02-06T08:17:59.941Z,-24.75
2023-02-06T08:20:26.638Z,-24.66
2023-02-06T08:22:54.147Z,-24.64
2023-02-06T08:25:20.662Z,-24.63
2023-02-06T08:27:47.369Z,-24.49
2023-02-06T08:30:14.023Z,-24.45
2023-02-06T08:32:40.472Z,-24.39
2023-02-06T08:35:07.103Z,-24.44
2023-02-06T08:37:33.550Z,-24.40
2023-02-06T08:40:00.062Z,-24.43
2023-02-06T08:42:26.536Z,-24.38
2023-02-06T08:44:53.808Z,-24.30
2023-02-06T08:47:20.297Z,-24.05
2023-02-06T08:49:50.644Z,-23.81
2023-02-06T08:52:17.684Z,-23.56
2023-02-06T08:54:44.169Z,-23.65
2023-02-06T08:57:12.771Z,-23.61
2023-02-06T08:59:39.311Z,-23.51
2023-02-06T09:02:08.276Z,-23.46
2023-02-06T09:04:37.596Z,-23.29
2023-02-06T09:07:04.301Z,-23.12
2023-02-06T09:09:30.923Z,-22.83
2023-02-06T09:12:02.222Z,-22.19
2023-02-06T09:14:29.403Z,-22.22
2023-02-06T09:16:58.192Z,-22.11
2023-02-06T09:19:25.457Z,-22.28
2023-02-06T09:21:51.952Z,-22.04
2023-02-06T09:24:18.522Z,-21.94
2023-02-06T09:26:58.918Z,-21.74
2023-02-06T09:29:28.948Z,-21.81
2023-02-06T09:31:57.326Z,-21.64
2023-02-06T09:34:25.694Z,-21.96
2023-02-06T09:36:54.564Z,-22.25
2023-02-06T09:39:21.476Z,-22.38
2023-02-06T09:41:52.056Z,-22.74
2023-02-06T09:44:33.140Z,-22.82
2023-02-06T09:47:05.344Z,-22.66
2023-02-06T09:49:46.553Z,-22.31
2023-02-06T09:52:28.031Z,-22.28
2023-02-06T09:55:10.241Z,-21.97
2023-02-06T09:57:51.638Z,-21.93
2023-02-06T10:00:31.640Z,-21.67
2023-02-06T10:02:58.405Z,-21.30
2023-02-06T10:05:35.098Z,-21.32
2023-02-06T10:08:19.828Z,-20.88
2023-02-06T10:10:51.886Z,-21.03
2023-02-06T10:13:41.196Z,-21.16
2023-02-06T10:16:30.879Z,-20.97
2023-02-06T10:19:03.226Z,-20.72
2023-02-06T10:21:42.950Z,-20.54
2023-02-06T10:24:45.481Z,-20.49
2023-02-06T10:27:14.241Z,-20.75
2023-02-06T10:29:42.238Z,-20.27
2023-02-06T10:32:14.286Z,-20.53
2023-02-06T10:35:07.659Z,-20.86
2023-02-06T10:38:04.861Z,-21.39
2023-02-06T10:40:43.708Z,-21.37
2023-02-06T10:43:48.536Z,-21.02
2023-02-06T10:46:51.006Z,-21.30
2023-02-06T10:49:23.250Z,-21.71
2023-02-06T10:51:56.480Z,-21.72
2023-02-06T10:54:47.557Z,-21.79
2023-02-06T10:57:19.512Z,-21.63
2023-02-06T10:59:48.596Z,-21.67
2023-02-06T11:02:42.544Z,-21.90
2023-02-06T11:05:14.659Z,-21.84
2023-02-06T11:07:43.937Z,-21.85
2023-02-06T11:10:21.861Z,-21.79
2023-02-06T11:12:52.159Z,-21.59
2023-02-06T11:15:24.997Z,-21.60
2023-02-06T11:17:52.278Z,-21.31
2023-02-06T11:20:25.164Z,-21.54
2023-02-06T11:22:53.437Z,-21.66
2023-02-06T11:25:31.404Z,-21.22
2023-02-06T11:27:58.856Z,-21.38
2023-02-06T11:30:34.819Z,-21.54
2023-02-06T11:33:07.494Z,-21.43
2023-02-06T11:35:38.894Z,-21.31
2023-02-06T11:38:17.976Z,-21.44
2023-02-06T11:41:06.707Z,-21.53
2023-02-06T11:43:42.341Z,-21.42
2023-02-06T11:46:20.919Z,-21.72
2023-02-06T11:48:56.195Z,-21.56
2023-02-06T11:51:24.070Z,-21.57
2023-02-06T11:54:03.762Z,-21.61
2023-02-06T11:56:31.590Z,-21.69
2023-02-06T11:59:07.358Z,-21.61
2023-02-06T12:01:51.765Z,-21.78
2023-02-06T12:04:28.189Z,-21.95
2023-02-06T12:07:00.756Z,-21.91
2023-02-06T12:09:28.033Z,-21.67
2023-02-06T12:11:59.345Z,-21.46
2023-02-06T12:14:31.697Z,-21.64
2023-02-06T12:17:01.263Z,-21.46
2023-02-06T12:19:31.730Z,-21.19
2023-02-06T12:22:02.577Z,-21.29
2023-02-06T12:24:32.291Z,-21.59
2023-02-06T12:27:02.508Z,-21.08
2023-02-06T12:29:35.121Z,-21.02
2023-02-06T12:32:14.739Z,-21.08
2023-02-06T12:34:54.366Z,-21.16
2023-02-06T12:37:41.097Z,-21.22
2023-02-06T12:40:38.368Z,-21.51
2023-02-06T12:43:15.086Z,-21.55
2023-02-06T12:46:01.384Z,-21.52
2023-02-06T12:48:45.906Z,-21.57
2023-02-06T12:51:21.494Z,-21.51
2023-02-06T12:54:09.851Z,-21.55
2023-02-06T12:56:44.260Z,-21.49
2023-02-06T12:59:10.645Z,-21.39
2023-02-06T13:01:45.987Z,-21.32
2023-02-06T13:04:17.180Z,-21.55
2023-02-06T13:06:50.361Z,-21.55
2023-02-06T13:09:21.823Z,-21.55
2023-02-06T13:11:48.572Z,-21.63
2023-02-06T13:14:26.934Z,-21.43
2023-02-06T13:16:59.341Z,-21.39
2023-02-06T13:19:46.024Z,-21.37
2023-02-06T13:22:17.359Z,-21.19
2023-02-06T13:24:46.077Z,-21.51
2023-02-06T13:27:33.241Z,-21.47
2023-02-06T13:30:29.029Z,-21.59
2023-02-06T13:33:13.710Z,-21.37
2023-02-06T13:35:59.050Z,-21.56
2023-02-06T13:38:34.297Z,-21.58
2023-02-06T13:41:15.643Z,-21.79
2023-02-06T13:43:54.465Z,-21.44
2023-02-06T13:46:23.362Z,-21.38
2023-02-06T13:49:23.552Z,-21.30
2023-02-06T13:51:52.952Z,-21.56
2023-02-06T13:54:39.080Z,-21.46
2023-02-06T13:57:26.880Z,-21.71
2023-02-06T13:59:57.774Z,-21.84
2023-02-06T14:02:28.777Z,-21.91
2023-02-06T14:04:56.085Z,-22.00
2023-02-06T14:07:43.632Z,-21.90
2023-02-06T14:10:37.771Z,-21.96
2023-02-06T14:13:24.087Z,-22.11
2023-02-06T14:15:58.850Z,-22.20
2023-02-06T14:18:48.797Z,-21.79
2023-02-06T14:21:22.393Z,-21.37
2023-02-06T14:24:27.615Z,-21.05
2023-02-06T14:27:15.783Z,-20.85
2023-02-06T14:29:52.366Z,-21.13
2023-02-06T14:32:30.652Z,-21.26
2023-02-06T14:35:11.901Z,-21.43
2023-02-06T14:38:06.963Z,-21.87
2023-02-06T14:40:36.519Z,-21.78
2023-02-06T14:43:05.846Z,-21.86
2023-02-06T14:45:42.090Z,-22.02
2023-02-06T14:48:23.629Z,-22.35
2023-02-06T14:50:55.459Z,-22.28
2023-02-06T14:53:29.495Z,-22.28
2023-02-06T14:56:08.784Z,-22.38
2023-02-06T14:58:35.833Z,-22.34
2023-02-06T15:01:24.385Z,-22.53
2023-02-06T15:03:52.744Z,-22.54
2023-02-06T15:06:37.706Z,-22.70
2023-02-06T15:09:05.288Z,-22.83
2023-02-06T15:11:34.842Z,-23.05
2023-02-06T15:14:15.264Z,-23.04
2023-02-06T15:16:49.352Z,-23.17
2023-02-06T15:19:21.648Z,-23.23
2023-02-06T15:21:49.382Z,-23.32
2023-02-06T15:24:30.328Z,-23.40
2023-02-06T15:27:21.795Z,-23.48
2023-02-06T15:29:50.454Z,-23.52
2023-02-06T15:32:24.015Z,-23.68
2023-02-06T15:34:50.634Z,-23.76
2023-02-06T15:37:27.737Z,-23.76
2023-02-06T15:39:54.452Z,-23.81
2023-02-06T15:42:21.757Z,-23.79
2023-02-06T15:44:49.636Z,-23.83
2023-02-06T15:47:17.860Z,-23.88
2023-02-06T15:49:47.793Z,-23.90
2023-02-06T15:52:15.501Z,-23.90
2023-02-06T15:54:44.921Z,-23.98
2023-02-06T15:57:29.593Z,-24.07
2023-02-06T15:59:59.029Z,-24.18
2023-02-06T16:02:36.386Z,-24.14
2023-02-06T16:05:04.202Z,-24.26
2023-02-06T16:07:35.654Z,-24.25
2023-02-06T16:10:18.742Z,-24.30
2023-02-06T16:12:45.366Z,-24.31
2023-02-06T16:15:27.217Z,-24.30
2023-02-06T16:17:54.491Z,-24.27
2023-02-06T16:20:37.348Z,-24.33
2023-02-06T16:23:27.031Z,-24.39
2023-02-06T16:26:15.611Z,-24.50
2023-02-06T16:29:09.469Z,-24.63
2023-02-06T16:31:38.494Z,-24.68
2023-02-06T16:34:29.075Z,-24.67
2023-02-06T16:36:55.669Z,-24.68
2023-02-06T16:39:23.635Z,-24.64
2023-02-06T16:41:51.927Z,-24.62
2023-02-06T16:44:19.488Z,-24.75
2023-02-06T16:46:46.545Z,-24.74
2023-02-06T16:49:16.626Z,-24.92
2023-02-06T16:51:43.833Z,-24.95
2023-02-06T16:54:20.177Z,-25.12
2023-02-06T16:56:46.867Z,-25.17
2023-02-06T16:59:13.414Z,-25.17
2023-02-06T17:01:39.982Z,-25.17
2023-02-06T17:04:06.662Z,-25.24
2023-02-06T17:06:34.319Z,-25.23
2023-02-06T17:09:06.528Z,-25.36
2023-02-06T17:11:33.476Z,-25.30
2023-02-06T17:13:59.981Z,-25.34
2023-02-06T17:16:27.210Z,-25.28
2023-02-06T17:18:54.313Z,-25.33
2023-02-06T17:21:22.257Z,-25.32
2023-02-06T17:23:49.921Z,-25.31
2023-02-06T17:26:21.674Z,-25.40
2023-02-06T17:28:48.585Z,-25.39
2023-02-06T17:31:15.635Z,-25.46
2023-02-06T17:33:42.203Z,-25.53
2023-02-06T17:36:18.904Z,-25.58
2023-02-06T17:38:45.607Z,-25.52
2023-02-06T17:41:12.925Z,-25.63
2023-02-06T17:43:39.507Z,-25.65
2023-02-06T17:46:06.824Z,-25.66
2023-02-06T17:48:36.649Z,-25.67
2023-02-06T17:51:05.115Z,-25.50
2023-02-06T17:53:31.695Z,-25.66
2023-02-06T17:56:03.884Z,-25.74
2023-02-06T17:58:30.529Z,-25.72
2023-02-06T18:00:57.198Z,-25.71
2023-02-06T18:03:23.824Z,-25.78
2023-02-06T18:06:00.443Z,-25.76
2023-02-06T18:08:28.557Z,-25.85
2023-02-06T18:10:55.507Z,-25.79
2023-02-06T18:13:24.029Z,-25.83
2023-02-06T18:15:55.668Z,-25.89
2023-02-06T18:18:26.190Z,-25.92
2023-02-06T18:20:52.744Z,-25.93
2023-02-06T18:23:19.488Z,-25.88
2023-02-06T18:25:46.035Z,-25.94
2023-02-06T18:28:14.765Z,-26.06
2023-02-06T18:30:42.104Z,-25.94
2023-02-06T18:33:09.191Z,-25.99
2023-02-06T18:35:39.317Z,-25.86
2023-02-06T18:38:09.555Z,-25.90
2023-02-06T18:40:40.678Z,-25.73
2023-02-06T18:43:07.730Z,-25.75
2023-02-06T18:45:36.902Z,-25.83
2023-02-06T18:48:04.959Z,-25.80
2023-02-06T18:50:32.004Z,-25.87
2023-02-06T18:52:58.567Z,-25.93
2023-02-06T18:55:25.382Z,-25.99
2023-02-06T18:57:53.693Z,-25.85
2023-02-06T19:00:22.057Z,-25.82
2023-02-06T19:02:49.628Z,-25.80
2023-02-06T19:05:16.360Z,-25.88
2023-02-06T19:07:42.917Z,-25.85
2023-02-06T19:10:12.914Z,-25.95
2023-02-06T19:12:40.149Z,-25.87
2023-02-06T19:15:06.901Z,-25.92
2023-02-06T19:17:33.920Z,-25.89
2023-02-06T19:20:00.398Z,-25.94
2023-02-06T19:22:27.019Z,-25.93
2023-02-06T19:24:53.541Z,-25.97
2023-02-06T19:27:21.234Z,-26.01
2023-02-06T19:29:48.009Z,-26.13
2023-02-06T19:32:14.525Z,-26.07
2023-02-06T19:34:41.995Z,-25.97
2023-02-06T19:37:09.895Z,-26.01
2023-02-06T19:39:39.938Z,-26.05
2023-02-06T19:42:09.579Z,-26.12
2023-02-06T19:44:37.023Z,-26.08
2023-02-06T19:47:03.936Z,-26.08
2023-02-06T19:49:30.683Z,-26.07
2023-02-06T19:51:57.309Z,-26.05
2023-02-06T19:54:23.946Z,-26.14
2023-02-06T19:56:50.399Z,-26.19
2023-02-06T19:59:22.609Z,-26.17
2023-02-06T20:01:52.188Z,-26.24
2023-02-06T20:04:20.887Z,-26.26
2023-02-06T20:06:49.253Z,-26.30
2023-02-06T20:09:15.940Z,-26.36
2023-02-06T20:11:42.798Z,-26.37
2023-02-06T20:14:10.150Z,-26.32
2023-02-06T20:16:38.214Z,-26.30
2023-02-06T20:19:15.626Z,-26.26
2023-02-06T20:21:44.709Z,-26.24
2023-02-06T20:24:18.537Z,-26.25
2023-02-06T20:26:45.512Z,-26.33
2023-02-06T20:29:19.737Z,-26.39
2023-02-06T20:31:46.555Z,-26.46
2023-02-06T20:34:13.635Z,-26.44
2023-02-06T20:36:41.884Z,-26.62
2023-02-06T20:39:11.796Z,-26.66
2023-02-06T20:41:38.807Z,-26.85
2023-02-06T20:44:05.852Z,-27.01
2023-02-06T20:46:33.906Z,-27.09
2023-02-06T20:49:02.946Z,-27.30
2023-02-06T20:51:30.938Z,-27.31
2023-02-06T20:53:58.225Z,-27.24
2023-02-06T20:56:24.865Z,-27.39
2023-02-06T20:58:51.485Z,-27.28
2023-02-06T21:01:22.249Z,-27.23
2023-02-06T21:03:49.429Z,-27.18
2023-02-06T21:06:16.144Z,-27.17
2023-02-06T21:08:43.058Z,-27.04
2023-02-06T21:11:09.638Z,-27.04
2023-02-06T21:13:36.381Z,-26.96
2023-02-06T21:16:03.211Z,-26.86
2023-02-06T21:18:31.093Z,-26.91
2023-02-06T21:21:07.232Z,-26.95
2023-02-06T21:23:34.075Z,-27.12
2023-02-06T21:26:00.622Z,-27.10
2023-02-06T21:28:27.130Z,-27.07
2023-02-06T21:30:59.810Z,-26.93
2023-02-06T21:33:26.407Z,-26.90
2023-02-06T21:35:53.710Z,-26.97
2023-02-06T21:38:20.787Z,-26.98
2023-02-06T21:40:47.385Z,-27.02
2023-02-06T21:43:17.011Z,-27.15
2023-02-06T21:45:44.596Z,-27.13
2023-02-06T21:48:11.552Z,-27.26
2023-02-06T21:50:39.291Z,-27.37
2023-02-06T21:53:05.924Z,-27.39
2023-02-06T21:55:32.495Z,-27.34
2023-02-06T21:58:00.607Z,-27.31
2023-02-06T22:00:28.498Z,-27.28
2023-02-06T22:02:54.993Z,-27.36
2023-02-06T22:05:21.671Z,-27.35
2023-02-06T22:07:48.140Z,-27.26
2023-02-06T22:10:14.750Z,-27.01
2023-02-06T22:12:41.238Z,-27.10
2023-02-06T22:15:08.246Z,-27.21
2023-02-06T22:17:35.450Z,-27.20
2023-02-06T22:20:01.954Z,-27.20
2023-02-06T22:22:28.551Z,-27.20
2023-02-06T22:24:54.998Z,-27.17
2023-02-06T22:27:21.551Z,-27.07
2023-02-06T22:29:48.002Z,-26.97
2023-02-06T22:32:14.452Z,-27.03
2023-02-06T22:34:40.929Z,-27.06
2023-02-06T22:37:07.391Z,-27.06
2023-02-06T22:39:33.923Z,-27.11
2023-02-06T22:42:00.624Z,-27.08
2023-02-06T22:44:27.118Z,-27.08
2023-02-06T22:46:53.659Z,-26.97
2023-02-06T22:49:20.965Z,-26.86
2023-02-06T22:51:47.527Z,-26.79
2023-02-06T22:54:14.602Z,-26.83
2023-02-06T22:56:42.340Z,-26.94
2023-02-06T22:59:26.954Z,-26.93
2023-02-06T23:01:56.270Z,-26.91
2023-02-06T23:04:27.531Z,-26.79
2023-02-06T23:06:54.146Z,-26.86
2023-02-06T23:09:23.229Z,-26.78
2023-02-06T23:11:50.690Z,-26.82
2023-02-06T23:14:18.579Z,-26.83
2023-02-06T23:16:45.433Z,-26.75
2023-02-06T23:19:13.149Z,-26.75
2023-02-06T23:21:41.164Z,-26.78
2023-02-06T23:24:09.053Z,-26.54
2023-02-06T23:26:35.919Z,-26.56
2023-02-06T23:29:06.149Z,-26.55
2023-02-06T23:31:32.985Z,-26.47
2023-02-06T23:33:59.597Z,-26.38
2023-02-06T23:36:27.139Z,-26.24
2023-02-06T23:38:53.803Z,-26.18
2023-02-06T23:41:23.302Z,-26.19
2023-02-06T23:43:55.753Z,-26.15
2023-02-06T23:46:22.859Z,-26.20
2023-02-06T23:48:49.907Z,-26.16
2023-02-06T23:51:17.493Z,-25.99
2023-02-06T23:53:44.092Z,-25.83
2023-02-06T23:56:12.868Z,-25.95
2023-02-06T23:58:39.867Z,-25.93
